Pagina principale
METAR-TAF:

METAR-TAF

Aeroporti :

Xi'an, Cina

latitudine: 34-26N, longitudine: 108-45E, altezza: 479 m

Osservazione

Il bollettino è stato emesso 31 minuti fa, alle 23:00 UTC
Vento 6 kt da nord
Temperature 14°C
Umidità 94%
Pressione 1020 hPa
Visibilità: 7000 m

METAR: ZLXY 212300Z 01003MPS 7000 NSC 14/13 Q1020 NOSIG

Ora: 07:31 (23:31 UTC)

Previsione

Il bollettino è stato emesso 8 ore e 20 minuti fa, alle 15:11 UTC
Previsione valida dal 21 alle 18 UTC al 22 alle 18 UTC
Vento 6 kt da est/nord-est
Visibilità: 3000 m
foschia

TAF: ZLXY 211511Z 2118/2218 06003MPS 3000 BR NSC TX25/2207Z TN15/2122Z

Osservazioni e previsioni meteorologiche di più di 4000 aeroporti (messaggi METAR e TAF).

Le stazioni disponibili sono rappresentate dai dischi gialli e rossi sulla carta.

Puntare il mouse per vedere il nome della stazione.

Clicca sopra per visualizzare le osservazioni e previsioni meteorologiche.

Per cambiare la mappa : fare clic sui pulsanti verdi con una croce nera per ingrandire, il pulsante verde con un trattino per diminuire, o sulla freccia verde per le mappe adiacenti.


METAR-TAF: